Time;durP1;ratioP1;P1;durP2;ratioP2;P2;SDS_P1;SDS_P2;PMS_P1;PMS_P2;Temp;Humidity;BMP_temperature;BMP_pressure;BME280_temperature;BME280_humidity;BME280_pressure;Samples;Min_cycle;Max_cycle;Signal;HPM_P1;HPM_P2
2023/11/08 00:01:48;;;;;;;4.20;1.50;;;;;7.50;100682.00;;;;10308521;28;20212;-69
2023/11/08 00:06:49;;;;;;;4.60;1.47;;;;;7.50;100684.00;;;;10304972;28;20231;-69
2023/11/08 00:11:51;;;;;;;2.90;1.57;;;;;7.60;100686.00;;;;10307106;28;20226;-69
2023/11/08 00:16:52;;;;;;;3.10;1.20;;;;;7.60;100689.00;;;;10312354;28;20247;-71
2023/11/08 00:21:53;;;;;;;4.53;1.00;;;;;7.50;100697.00;;;;10320896;28;20823;-71
2023/11/08 00:26:54;;;;;;;4.53;1.20;;;;;7.50;100690.00;;;;10330936;28;20282;-72
2023/11/08 00:31:55;;;;;;;3.57;1.00;;;;;7.50;100698.00;;;;10307739;28;20239;-72
2023/11/08 00:36:56;;;;;;;4.43;1.23;;;;;7.40;100692.00;;;;10309963;28;20361;-72
2023/11/08 00:41:57;;;;;;;3.20;1.10;;;;;7.40;100699.00;;;;10308328;28;20311;-72
2023/11/08 00:46:59;;;;;;;3.53;1.00;;;;;7.30;100708.00;;;;10309749;28;20347;-72
2023/11/08 00:52:00;;;;;;;2.23;0.90;;;;;7.30;100707.00;;;;10313031;28;20216;-72
2023/11/08 00:57:01;;;;;;;2.27;1.27;;;;;7.30;100710.00;;;;10305601;28;20220;-72
2023/11/08 01:02:03;;;;;;;3.90;1.10;;;;;7.30;100718.00;;;;10304409;28;20270;-71
2023/11/08 01:07:05;;;;;;;2.63;1.17;;;;;7.30;100729.00;;;;10307500;28;20310;-71
2023/11/08 01:12:06;;;;;;;4.23;1.10;;;;;7.30;100736.00;;;;10328300;28;20272;-72
2023/11/08 01:17:08;;;;;;;3.20;1.40;;;;;7.30;100736.00;;;;10309412;28;20219;-72
2023/11/08 01:22:09;;;;;;;8.27;2.23;;;;;7.30;100744.00;;;;10306933;28;20279;-72
2023/11/08 01:27:11;;;;;;;2.03;1.40;;;;;7.20;100741.00;;;;10306154;28;21841;-71
2023/11/08 01:32:12;;;;;;;3.63;1.20;;;;;7.20;100739.00;;;;10315518;28;20219;-72
2023/11/08 01:37:13;;;;;;;4.37;1.37;;;;;7.20;100745.00;;;;10317690;28;20243;-71
2023/11/08 01:42:18;;;;;;;4.93;1.60;;;;;7.20;100742.00;;;;10311713;28;20220;-71
2023/11/08 01:47:19;;;;;;;4.27;1.30;;;;;7.30;100741.00;;;;10318325;28;20235;-71
2023/11/08 01:52:22;;;;;;;4.37;1.37;;;;;7.30;100737.00;;;;10320211;28;20291;-71
2023/11/08 01:57:23;;;;;;;4.77;1.63;;;;;7.30;100743.00;;;;10313502;28;20303;-72
2023/11/08 02:02:24;;;;;;;6.37;1.80;;;;;7.30;100742.00;;;;10330085;28;20227;-71
2023/11/08 02:07:26;;;;;;;5.50;1.40;;;;;7.30;100741.00;;;;10317828;28;20224;-71
2023/11/08 02:12:29;;;;;;;4.90;1.77;;;;;7.30;100748.00;;;;10299088;28;20305;-71
2023/11/08 02:17:30;;;;;;;6.07;1.80;;;;;7.30;100749.00;;;;10317443;28;20900;-71
2023/11/08 02:22:31;;;;;;;5.93;2.23;;;;;7.30;100746.00;;;;10308231;28;20228;-71
2023/11/08 02:27:32;;;;;;;2.93;1.63;;;;;7.20;100754.00;;;;10314145;28;20228;-71
2023/11/08 02:32:35;;;;;;;3.50;1.30;;;;;7.20;100757.00;;;;10318517;28;20887;-71
2023/11/08 02:37:36;;;;;;;2.77;1.50;;;;;7.20;100755.00;;;;10306373;28;20268;-72
2023/11/08 02:42:41;;;;;;;7.07;2.00;;;;;7.20;100742.00;;;;10328804;28;20227;-72
2023/11/08 02:47:43;;;;;;;4.07;1.43;;;;;7.20;100744.00;;;;10318716;28;20228;-71
2023/11/08 02:52:44;;;;;;;5.77;1.60;;;;;7.20;100740.00;;;;10320484;28;20707;-72
2023/11/08 02:57:45;;;;;;;5.60;1.43;;;;;7.20;100732.00;;;;10326196;28;20232;-71
2023/11/08 03:02:47;;;;;;;8.27;1.83;;;;;7.20;100729.00;;;;10312067;28;20247;-71
2023/11/08 03:07:53;;;;;;;3.77;1.50;;;;;7.20;100740.00;;;;10316825;28;20227;-71
2023/11/08 03:12:54;;;;;;;7.00;1.50;;;;;7.20;100745.00;;;;10312640;28;20263;-71
2023/11/08 03:17:56;;;;;;;4.57;1.50;;;;;7.20;100736.00;;;;10319438;28;20262;-71
2023/11/08 03:22:57;;;;;;;7.80;1.53;;;;;7.20;100733.00;;;;10330362;28;20238;-71
2023/11/08 03:27:58;;;;;;;3.43;1.70;;;;;7.20;100739.00;;;;10314334;28;20278;-71
2023/11/08 03:33:00;;;;;;;14.27;2.17;;;;;7.20;100748.00;;;;10309448;28;20243;-71
2023/11/08 03:38:01;;;;;;;5.87;1.30;;;;;7.20;100745.00;;;;10314040;28;20232;-71
2023/11/08 03:43:02;;;;;;;4.73;1.63;;;;;7.20;100737.00;;;;10308032;28;20364;-70
2023/11/08 03:48:03;;;;;;;7.40;2.13;;;;;7.30;100740.00;;;;10310726;28;20450;-69
2023/11/08 03:53:06;;;;;;;4.80;1.60;;;;;7.40;100740.00;;;;10309941;28;20230;-70
2023/11/08 03:58:07;;;;;;;9.70;1.73;;;;;7.40;100747.00;;;;10313876;28;20223;-70
2023/11/08 04:03:08;;;;;;;5.43;1.37;;;;;7.40;100747.00;;;;10314637;28;20220;-68
2023/11/08 04:08:10;;;;;;;6.47;1.50;;;;;7.50;100747.00;;;;10288643;28;20231;-69
2023/11/08 04:13:11;;;;;;;8.80;2.00;;;;;7.50;100739.00;;;;10301757;28;20278;-69
2023/11/08 04:18:12;;;;;;;7.20;2.30;;;;;7.60;100734.00;;;;10303278;28;20224;-71
2023/11/08 04:23:14;;;;;;;8.60;1.90;;;;;7.70;100728.00;;;;10307577;28;20255;-69
2023/11/08 04:28:16;;;;;;;5.60;2.10;;;;;7.70;100721.00;;;;10312641;28;20216;-69
2023/11/08 04:33:17;;;;;;;5.70;2.07;;;;;7.80;100743.00;;;;10310630;28;20277;-69
2023/11/08 04:38:19;;;;;;;4.83;1.60;;;;;7.80;100730.00;;;;10308603;28;21796;-70
2023/11/08 04:43:21;;;;;;;9.83;2.20;;;;;7.90;100719.00;;;;10307704;28;20317;-70
2023/11/08 04:48:22;;;;;;;5.63;2.10;;;;;7.90;100713.00;;;;10318449;28;20250;-69
2023/11/08 04:53:23;;;;;;;7.30;2.40;;;;;7.90;100710.00;;;;10301801;28;20224;-70
2023/11/08 04:58:24;;;;;;;4.77;2.07;;;;;7.90;100710.00;;;;10316816;28;20602;-70
2023/11/08 05:03:26;;;;;;;10.47;2.63;;;;;8.00;100723.00;;;;10317312;28;20314;-70
2023/11/08 05:08:27;;;;;;;6.37;2.17;;;;;8.00;100717.00;;;;10320002;28;20220;-69
2023/11/08 05:13:28;;;;;;;11.83;2.87;;;;;8.10;100725.00;;;;10326382;28;20824;-69
2023/11/08 05:18:29;;;;;;;9.33;2.63;;;;;8.10;100730.00;;;;10322574;28;20315;-70
2023/11/08 05:23:30;;;;;;;9.57;3.10;;;;;8.10;100724.00;;;;10319659;28;20233;-70
2023/11/08 05:28:32;;;;;;;16.73;3.10;;;;;8.10;100743.00;;;;10325534;28;20234;-69
2023/11/08 05:33:33;;;;;;;12.93;2.27;;;;;8.10;100741.00;;;;10323562;28;20720;-69
2023/11/08 05:38:34;;;;;;;8.27;2.70;;;;;8.20;100743.00;;;;10322510;28;20263;-69
2023/11/08 05:43:36;;;;;;;14.90;2.53;;;;;8.20;100733.00;;;;10316266;28;20243;-68
2023/11/08 05:48:37;;;;;;;4.17;2.13;;;;;8.20;100735.00;;;;10320555;28;20899;-69
2023/11/08 05:53:38;;;;;;;7.43;2.93;;;;;8.10;100748.00;;;;10325417;28;20228;-69
2023/11/08 05:58:40;;;;;;;5.87;2.77;;;;;8.10;100745.00;;;;10315687;28;20235;-69
2023/11/08 06:03:42;;;;;;;7.37;3.17;;;;;8.00;100748.00;;;;10319820;28;20231;-69
2023/11/08 06:08:48;;;;;;;7.53;2.33;;;;;8.00;100746.00;;;;10307197;28;20228;-70
2023/11/08 06:13:49;;;;;;;6.20;3.37;;;;;8.00;100743.00;;;;10312852;28;20226;-69
2023/11/08 06:18:50;;;;;;;8.20;3.60;;;;;7.90;100756.00;;;;10311945;28;20239;-69
2023/11/08 06:23:52;;;;;;;14.50;4.13;;;;;7.90;100762.00;;;;10314021;28;20231;-70
2023/11/08 06:28:53;;;;;;;9.17;3.50;;;;;7.80;100749.00;;;;10317681;28;20686;-70
2023/11/08 06:33:54;;;;;;;11.40;4.27;;;;;7.70;100754.00;;;;10309807;28;20244;-71
2023/11/08 06:38:55;;;;;;;14.40;4.53;;;;;7.60;100753.00;;;;10313250;28;20231;-69
2023/11/08 06:43:56;;;;;;;10.20;3.80;;;;;7.40;100747.00;;;;10306175;28;20250;-69
2023/11/08 06:48:57;;;;;;;12.67;3.83;;;;;7.30;100738.00;;;;10308125;28;20224;-70
2023/11/08 06:53:58;;;;;;;13.27;3.90;;;;;7.20;100744.00;;;;10308637;28;20223;-70
2023/11/08 06:59:00;;;;;;;17.40;4.37;;;;;7.30;100742.00;;;;10329154;28;20248;-69
2023/11/08 07:04:01;;;;;;;12.97;4.80;;;;;7.40;100751.00;;;;10297317;28;20648;-72
2023/11/08 07:09:02;;;;;;;6.47;3.30;;;;;7.40;100739.00;;;;10300778;28;20231;-70
2023/11/08 07:14:03;;;;;;;10.63;4.30;;;;;7.50;100751.00;;;;10308131;28;20229;-71
2023/11/08 07:19:05;;;;;;;12.93;3.60;;;;;7.40;100761.00;;;;10312090;28;20223;-72
2023/11/08 07:24:07;;;;;;;16.20;4.07;;;;;7.50;100733.00;;;;10311949;28;20224;-71
2023/11/08 07:29:08;;;;;;;13.27;3.90;;;;;7.60;100741.00;;;;10298570;28;20232;-72
2023/11/08 07:34:09;;;;;;;12.03;4.67;;;;;7.60;100748.00;;;;10311275;28;20227;-71
2023/11/08 07:39:15;;;;;;;13.33;4.37;;;;;7.70;100751.00;;;;10315302;28;20231;-71
2023/11/08 07:44:30;;;;;;;8.20;3.50;;;;;7.90;100760.00;;;;10314280;28;20629;-71
2023/11/08 07:49:31;;;;;;;9.23;4.00;;;;;8.00;100762.00;;;;10309517;28;20240;-72
2023/11/08 07:54:35;;;;;;;11.10;3.90;;;;;8.20;100772.00;;;;10284543;28;20234;-72
2023/11/08 07:59:36;;;;;;;8.37;3.17;;;;;8.50;100777.00;;;;10295804;28;20232;-71
2023/11/08 08:04:37;;;;;;;15.67;3.73;;;;;8.70;100767.00;;;;10304842;28;20319;-71
2023/11/08 08:09:38;;;;;;;8.83;3.20;;;;;8.70;100783.00;;;;10319455;28;20227;-71
2023/11/08 08:14:40;;;;;;;11.93;3.93;;;;;8.60;100777.00;;;;10313238;28;20232;-72
2023/11/08 08:19:41;;;;;;;7.07;3.60;;;;;8.60;100773.00;;;;10315713;28;20231;-71
2023/11/08 08:24:42;;;;;;;9.23;3.93;;;;;8.60;100775.00;;;;10315246;28;20227;-73
2023/11/08 08:29:43;;;;;;;7.87;3.80;;;;;8.50;100778.00;;;;10315959;28;20231;-74
2023/11/08 08:34:44;;;;;;;13.33;3.87;;;;;8.60;100776.00;;;;10306563;28;20238;-73
2023/11/08 08:39:46;;;;;;;10.53;4.40;;;;;8.70;100771.00;;;;10307073;28;20227;-74
2023/11/08 08:44:47;;;;;;;10.23;4.00;;;;;9.50;100761.00;;;;10320096;28;20266;-73
2023/11/08 08:49:49;;;;;;;7.87;3.30;;;;;10.10;100770.00;;;;10307684;28;20242;-74
2023/11/08 08:54:51;;;;;;;9.27;3.90;;;;;10.20;100768.00;;;;10312328;28;20236;-74
2023/11/08 08:59:52;;;;;;;7.60;3.10;;;;;10.00;100760.00;;;;10308328;28;20216;-74
2023/11/08 09:04:53;;;;;;;7.33;3.73;;;;;10.30;100744.00;;;;10320791;28;20224;-74
2023/11/08 09:09:54;;;;;;;4.87;3.20;;;;;10.80;100758.00;;;;10309290;28;20974;-74
2023/11/08 09:14:55;;;;;;;6.37;3.00;;;;;10.90;100745.00;;;;10314521;28;20231;-74
2023/11/08 09:19:56;;;;;;;6.83;3.20;;;;;11.10;100760.00;;;;10293767;28;20220;-74
2023/11/08 09:24:59;;;;;;;9.15;3.38;;;;;10.90;100760.00;;;;10317345;28;20665;-74
2023/11/08 09:30:01;;;;;;;9.00;2.77;;;;;11.50;100748.00;;;;10298610;28;20219;-73
2023/11/08 09:35:02;;;;;;;7.80;2.13;;;;;12.10;100754.00;;;;10289131;28;20238;-70
2023/11/08 09:40:09;;;;;;;7.32;2.30;;;;;12.00;100750.00;;;;10302989;28;20786;-70
2023/11/08 09:45:11;;;;;;;8.30;3.22;;;;;11.70;100747.00;;;;10297120;28;20227;-70
2023/11/08 09:50:13;;;;;;;8.97;2.63;;;;;11.40;100739.00;;;;10291234;28;20685;-70
2023/11/08 09:55:14;;;;;;;4.75;1.90;;;;;11.70;100731.00;;;;10305630;28;20322;-70
2023/11/08 10:00:23;;;;;;;5.40;2.80;;;;;12.40;100731.00;;;;10303319;28;20290;-70
2023/11/08 10:05:24;;;;;;;7.55;2.92;;;;;12.70;100723.00;;;;10314780;28;20231;-70
2023/11/08 10:10:26;;;;;;;5.15;1.75;;;;;13.00;100722.00;;;;10306898;28;20289;-70
2023/11/08 10:15:30;;;;;;;7.05;2.22;;;;;13.30;100727.00;;;;10308767;28;20239;-70
2023/11/08 10:20:34;;;;;;;7.45;2.60;;;;;13.50;100700.00;;;;10302559;28;20773;-70
2023/11/08 10:25:36;;;;;;;3.78;1.98;;;;;14.00;100701.00;;;;10294734;28;20436;-71
2023/11/08 10:30:41;;;;;;;3.80;1.85;;;;;13.90;100695.00;;;;10280532;28;20224;-71
2023/11/08 10:35:43;;;;;;;3.13;1.98;;;;;13.80;100693.00;;;;10303089;28;20797;-71
2023/11/08 10:40:45;;;;;;;7.10;1.92;;;;;13.50;100687.00;;;;10305601;28;20223;-70
2023/11/08 10:45:46;;;;;;;7.60;1.98;;;;;13.20;100684.00;;;;10306472;28;20286;-72
2023/11/08 10:50:51;;;;;;;7.63;2.30;;;;;13.40;100676.00;;;;10310473;28;20698;-73
2023/11/08 10:55:53;;;;;;;4.30;1.70;;;;;13.20;100652.00;;;;10309742;28;20232;-72
2023/11/08 11:00:56;;;;;;;3.95;1.75;;;;;12.60;100653.00;;;;10304536;28;20224;-73
2023/11/08 11:06:00;;;;;;;6.03;1.90;;;;;12.40;100642.00;;;;10306589;28;20577;-73
2023/11/08 11:11:02;;;;;;;5.47;1.42;;;;;13.00;100648.00;;;;10302167;28;20232;-72
2023/11/08 11:16:09;;;;;;;3.28;1.50;;;;;13.20;100640.00;;;;10308160;28;20224;-72
2023/11/08 11:21:27;;;;;;;3.17;1.38;;;;;13.10;100637.00;;;;10307824;28;20230;-73
2023/11/08 11:26:48;;;;;;;5.53;1.70;;;;;13.10;100642.00;;;;10299121;28;20238;-73
2023/11/08 11:31:49;;;;;;;6.13;1.70;;;;;13.10;100632.00;;;;10300058;28;20231;-73
2023/11/08 11:37:12;;;;;;;5.60;1.40;;;;;13.00;100628.00;;;;10269864;28;20318;-73
2023/11/08 11:42:19;;;;;;;5.88;1.75;;;;;13.20;100623.00;;;;10298822;28;20231;-72
2023/11/08 11:47:27;;;;;;;8.35;2.38;;;;;13.10;100624.00;;;;10302421;28;20220;-72
2023/11/08 11:52:31;;;;;;;5.25;1.80;;;;;12.80;100614.00;;;;10314178;28;20230;-73
2023/11/08 11:57:33;;;;;;;5.53;1.55;;;;;12.60;100609.00;;;;10315542;28;20224;-72
2023/11/08 12:02:34;;;;;;;5.15;1.75;;;;;12.40;100594.00;;;;10296242;28;20228;-71
2023/11/08 12:07:38;;;;;;;5.22;1.88;;;;;12.10;100595.00;;;;10296710;28;20226;-71
2023/11/08 12:12:43;;;;;;;2.88;1.50;;;;;11.90;100574.00;;;;10294657;28;20234;-73
2023/11/08 12:17:51;;;;;;;3.90;1.70;;;;;11.90;100569.00;;;;10296751;28;20231;-71
2023/11/08 12:22:53;;;;;;;3.15;1.50;;;;;11.90;100556.00;;;;10280738;28;20227;-72
2023/11/08 12:27:57;;;;;;;3.00;1.50;;;;;11.50;100549.00;;;;10297616;28;20224;-72
2023/11/08 12:32:59;;;;;;;6.00;1.77;;;;;10.90;100535.00;;;;10296205;28;20228;-72
2023/11/08 12:38:01;;;;;;;4.57;1.47;;;;;10.40;100514.00;;;;10294534;28;20243;-72
2023/11/08 12:43:12;;;;;;;4.57;1.63;;;;;10.20;100496.00;;;;10294639;28;20277;-72
2023/11/08 12:48:35;;;;;;;4.13;1.83;;;;;10.40;100495.00;;;;10299725;28;20230;-72
2023/11/08 12:53:38;;;;;;;7.57;1.77;;;;;11.00;100485.00;;;;10302579;28;20767;-72
2023/11/08 12:58:39;;;;;;;5.63;1.80;;;;;11.60;100484.00;;;;10284148;28;20211;-72
2023/11/08 13:03:41;;;;;;;4.20;1.60;;;;;11.90;100487.00;;;;10308992;28;20231;-73
2023/11/08 13:08:52;;;;;;;10.00;2.00;;;;;11.90;100473.00;;;;10299202;28;20234;-74
2023/11/08 13:13:54;;;;;;;4.07;1.60;;;;;12.20;100464.00;;;;10301553;28;20227;-78
2023/11/08 13:18:55;;;;;;;5.57;1.35;;;;;12.50;100452.00;;;;10310892;28;20318;-74
2023/11/08 13:23:56;;;;;;;5.60;1.30;;;;;12.40;100431.00;;;;10304913;28;20228;-77
2023/11/08 13:29:09;;;;;;;4.90;1.50;;;;;12.20;100441.00;;;;10309080;28;20227;-76
2023/11/08 13:34:10;;;;;;;5.30;1.80;;;;;11.90;100422.00;;;;10312262;28;20226;-74
2023/11/08 13:39:12;;;;;;;5.88;1.10;;;;;11.70;100426.00;;;;10312280;28;20775;-73
2023/11/08 13:44:13;;;;;;;5.17;1.60;;;;;11.40;100418.00;;;;10332912;28;20216;-75
2023/11/08 13:49:15;;;;;;;5.75;1.70;;;;;11.10;100396.00;;;;10312070;28;20275;-77
2023/11/08 13:54:16;;;;;;;4.70;1.30;;;;;10.90;100389.00;;;;10333401;28;20307;-74
2023/11/08 13:59:21;;;;;;;5.53;1.43;;;;;10.70;100371.00;;;;10313186;28;20327;-77
2023/11/08 14:04:24;;;;;;;5.53;1.27;;;;;10.70;100364.00;;;;10311724;28;20224;-74
2023/11/08 14:09:25;;;;;;;3.93;1.77;;;;;10.90;100355.00;;;;10314217;28;20306;-75
2023/11/08 14:14:26;;;;;;;4.53;1.70;;;;;10.80;100358.00;;;;10321089;28;20230;-71
2023/11/08 14:19:27;;;;;;;4.40;1.27;;;;;10.70;100342.00;;;;10302790;28;20322;-70
2023/11/08 14:24:28;;;;;;;5.37;1.73;;;;;10.60;100339.00;;;;10312794;28;20227;-71
2023/11/08 14:29:30;;;;;;;7.27;1.80;;;;;10.40;100323.00;;;;10304376;28;20255;-71
2023/11/08 14:34:41;;;;;;;3.33;1.27;;;;;10.20;100297.00;;;;10302663;28;20227;-70
2023/11/08 14:39:43;;;;;;;5.50;1.40;;;;;10.10;100310.00;;;;10301223;28;20228;-71
2023/11/08 14:44:47;;;;;;;5.33;1.57;;;;;9.90;100299.00;;;;10300067;28;20939;-71
2023/11/08 14:49:48;;;;;;;4.00;1.40;;;;;9.80;100274.00;;;;10307911;28;20227;-71
2023/11/08 14:54:51;;;;;;;4.83;1.70;;;;;9.90;100273.00;;;;10291474;28;20235;-71
2023/11/08 14:59:52;;;;;;;4.47;1.80;;;;;9.70;100265.00;;;;10304430;28;20243;-74
2023/11/08 15:04:53;;;;;;;4.40;1.60;;;;;9.70;100258.00;;;;10316631;28;20555;-71
2023/11/08 15:09:54;;;;;;;6.57;1.87;;;;;9.60;100257.00;;;;10301558;28;20286;-71
2023/11/08 15:15:02;;;;;;;6.43;1.63;;;;;9.50;100246.00;;;;10295805;28;20219;-71
2023/11/08 15:20:04;;;;;;;4.40;1.50;;;;;9.50;100249.00;;;;10305650;28;20215;-73
2023/11/08 15:25:05;;;;;;;6.33;1.60;;;;;9.50;100256.00;;;;10291789;28;20315;-73
2023/11/08 15:30:08;;;;;;;4.77;1.70;;;;;9.50;100247.00;;;;10318131;28;20224;-72
2023/11/08 15:35:09;;;;;;;4.00;1.17;;;;;9.50;100235.00;;;;10303037;28;20639;-70
2023/11/08 15:40:12;;;;;;;6.07;1.50;;;;;9.50;100228.00;;;;10304920;28;20865;-72
2023/11/08 15:45:14;;;;;;;7.70;1.70;;;;;9.50;100212.00;;;;10305189;28;20282;-72
2023/11/08 15:50:15;;;;;;;4.47;2.03;;;;;9.50;100206.00;;;;10302116;28;20219;-73
2023/11/08 15:55:16;;;;;;;2.27;1.20;;;;;9.50;100202.00;;;;10307239;28;20212;-72
2023/11/08 16:00:18;;;;;;;1.47;0.97;;;;;9.60;100192.00;;;;10306996;28;20335;-74
2023/11/08 16:05:19;;;;;;;6.37;1.23;;;;;9.50;100192.00;;;;10296895;28;20230;-72
2023/11/08 16:10:21;;;;;;;6.27;1.70;;;;;9.40;100198.00;;;;10305084;28;22125;-73
2023/11/08 16:15:22;;;;;;;3.20;1.17;;;;;9.40;100184.00;;;;10297237;28;20222;-70
2023/11/08 16:20:24;;;;;;;5.67;1.80;;;;;9.40;100183.00;;;;10300832;28;20227;-71
2023/11/08 16:25:26;;;;;;;5.50;1.50;;;;;9.30;100165.00;;;;10306792;28;20288;-71
2023/11/08 16:30:27;;;;;;;3.03;1.30;;;;;9.30;100168.00;;;;10299792;28;20220;-72
2023/11/08 16:35:48;;;;;;;6.20;1.20;;;;;9.30;100159.00;;;;10302108;28;20306;-73
2023/11/08 16:40:49;;;;;;;2.67;1.07;;;;;9.30;100155.00;;;;10306343;28;20249;-73
2023/11/08 16:45:51;;;;;;;3.23;1.30;;;;;9.30;100153.00;;;;10310615;28;20583;-74
2023/11/08 16:50:52;;;;;;;5.13;1.20;;;;;9.30;100140.00;;;;10317769;28;20223;-74
2023/11/08 16:55:53;;;;;;;8.10;1.50;;;;;9.40;100166.00;;;;10299354;28;20251;-74
2023/11/08 17:00:54;;;;;;;4.53;1.57;;;;;9.40;100149.00;;;;10316750;28;20275;-74
2023/11/08 17:05:56;;;;;;;2.20;1.33;;;;;9.40;100161.00;;;;10313698;28;20656;-74
2023/11/08 17:10:57;;;;;;;2.83;0.83;;;;;9.40;100150.00;;;;10292024;28;20219;-74
2023/11/08 17:15:59;;;;;;;3.03;1.00;;;;;9.40;100146.00;;;;10310428;28;20302;-74
2023/11/08 17:21:01;;;;;;;4.10;1.53;;;;;9.40;100134.00;;;;10308009;28;20247;-74
2023/11/08 17:26:02;;;;;;;3.37;1.33;;;;;9.40;100128.00;;;;10311623;28;20227;-74
2023/11/08 17:31:04;;;;;;;4.90;1.80;;;;;9.40;100131.00;;;;10310677;28;20224;-74
2023/11/08 17:36:05;;;;;;;3.80;1.90;;;;;9.40;100108.00;;;;10317906;28;20242;-74
2023/11/08 17:41:06;;;;;;;4.03;1.50;;;;;9.50;100110.00;;;;10317786;28;20215;-74
2023/11/08 17:46:10;;;;;;;3.00;1.40;;;;;9.50;100112.00;;;;10330306;28;20231;-74
2023/11/08 17:51:11;;;;;;;6.77;1.97;;;;;9.50;100101.00;;;;10309501;28;20887;-75
2023/11/08 17:56:12;;;;;;;7.37;2.03;;;;;9.50;100102.00;;;;10325335;28;20862;-79
2023/11/08 18:01:16;;;;;;;4.13;1.80;;;;;9.50;100097.00;;;;10310492;28;20274;-78
2023/11/08 18:06:18;;;;;;;3.97;1.33;;;;;9.60;100097.00;;;;10309726;28;20293;-79
2023/11/08 18:11:19;;;;;;;3.17;2.00;;;;;9.60;100098.00;;;;10316047;28;20224;-76
2023/11/08 18:16:21;;;;;;;4.93;1.87;;;;;9.60;100098.00;;;;10324046;28;20286;-78
2023/11/08 18:21:23;;;;;;;4.63;1.90;;;;;9.60;100092.00;;;;10316618;28;20232;-78
2023/11/08 18:26:25;;;;;;;3.30;1.43;;;;;9.60;100069.00;;;;10317840;28;22040;-77
2023/11/08 18:31:26;;;;;;;1.93;1.50;;;;;9.60;100064.00;;;;10318852;28;20220;-78
2023/11/08 18:36:27;;;;;;;6.00;1.60;;;;;9.70;100075.00;;;;10300397;28;20235;-77
2023/11/08 18:41:28;;;;;;;4.63;1.93;;;;;9.70;100069.00;;;;10309925;28;20216;-80
2023/11/08 18:46:29;;;;;;;6.00;1.63;;;;;9.70;100061.00;;;;10320003;28;20250;-81
2023/11/08 18:51:30;;;;;;;4.37;1.60;;;;;9.70;100060.00;;;;10333763;28;20283;-81
2023/11/08 18:56:31;;;;;;;4.90;2.43;;;;;9.70;100054.00;;;;10324318;28;20227;-83
2023/11/08 19:01:33;;;;;;;4.93;1.57;;;;;9.70;100058.00;;;;10327487;28;20227;-81
2023/11/08 19:06:40;;;;;;;3.40;1.90;;;;;9.70;100057.00;;;;10324549;28;20239;-72
2023/11/08 19:11:44;;;;;;;2.67;1.37;;;;;9.70;100050.00;;;;10306018;28;20817;-72
2023/11/08 19:16:45;;;;;;;2.30;1.50;;;;;9.70;100031.00;;;;10303727;28;20224;-72
2023/11/08 19:21:49;;;;;;;1.70;0.93;;;;;9.70;100025.00;;;;10301996;28;20303;-72
2023/11/08 19:26:51;;;;;;;3.43;1.90;;;;;9.70;100025.00;;;;10299064;28;20244;-72
2023/11/08 19:31:52;;;;;;;2.23;1.30;;;;;9.70;100013.00;;;;10276995;28;20224;-72
2023/11/08 19:36:54;;;;;;;1.60;1.10;;;;;9.70;100005.00;;;;10316053;28;20231;-72
2023/11/08 19:41:55;;;;;;;2.13;1.40;;;;;9.70;99998.00;;;;10305891;28;21021;-72
2023/11/08 19:46:56;;;;;;;2.90;1.20;;;;;9.70;99999.00;;;;10304221;28;20896;-72
2023/11/08 19:52:06;;;;;;;4.73;1.53;;;;;9.70;99996.00;;;;10303866;28;20230;-72
2023/11/08 19:57:07;;;;;;;2.10;1.40;;;;;9.70;99990.00;;;;10304229;28;20260;-72
2023/11/08 20:02:08;;;;;;;3.50;1.43;;;;;9.80;99984.00;;;;10320880;28;20314;-72
2023/11/08 20:07:10;;;;;;;3.93;1.57;;;;;9.80;99971.00;;;;10300454;28;20216;-71
2023/11/08 20:12:11;;;;;;;4.07;1.50;;;;;9.80;99976.00;;;;10306755;28;20819;-72
2023/11/08 20:17:12;;;;;;;3.53;1.20;;;;;9.80;99973.00;;;;10300019;28;20239;-71
2023/11/08 20:22:15;;;;;;;1.77;1.30;;;;;9.80;99953.00;;;;10303793;28;20226;-69
2023/11/08 20:27:16;;;;;;;2.50;1.10;;;;;9.80;99950.00;;;;10302476;28;20317;-70
2023/11/08 20:32:17;;;;;;;1.80;1.00;;;;;9.80;99951.00;;;;10293579;28;20232;-70
2023/11/08 20:37:18;;;;;;;2.50;1.10;;;;;9.80;99925.00;;;;10297486;28;20252;-70
2023/11/08 20:42:19;;;;;;;3.40;1.23;;;;;9.80;99932.00;;;;10296802;28;20263;-71
2023/11/08 20:47:21;;;;;;;1.80;1.33;;;;;9.80;99937.00;;;;10287074;28;20215;-70
2023/11/08 20:52:27;;;;;;;1.50;1.20;;;;;9.80;99925.00;;;;10301822;28;20223;-71
2023/11/08 20:57:30;;;;;;;1.20;1.10;;;;;9.80;99913.00;;;;10299662;28;20223;-72
2023/11/08 21:02:31;;;;;;;1.63;1.03;;;;;9.80;99919.00;;;;10290947;28;20633;-70
2023/11/08 21:07:33;;;;;;;2.70;1.40;;;;;9.80;99919.00;;;;10294241;28;20235;-69
2023/11/08 21:12:34;;;;;;;3.03;1.47;;;;;9.80;99912.00;;;;10295300;28;20919;-70
2023/11/08 21:17:35;;;;;;;2.07;1.23;;;;;9.80;99906.00;;;;10298973;28;20290;-71
2023/11/08 21:22:36;;;;;;;2.03;1.30;;;;;9.70;99912.00;;;;10309179;28;20236;-71
2023/11/08 21:27:38;;;;;;;2.50;1.00;;;;;9.70;99891.00;;;;10278270;28;20223;-72
2023/11/08 21:32:39;;;;;;;1.33;0.93;;;;;9.70;99879.00;;;;10296725;28;20834;-72
2023/11/08 21:37:40;;;;;;;1.63;1.30;;;;;9.70;99877.00;;;;10292971;28;20231;-71
2023/11/08 21:42:41;;;;;;;1.23;0.70;;;;;9.80;99867.00;;;;10295932;28;20228;-71
2023/11/08 21:47:42;;;;;;;1.37;0.97;;;;;9.80;99868.00;;;;10292215;28;20622;-71
2023/11/08 21:52:44;;;;;;;2.00;1.17;;;;;9.80;99856.00;;;;10307690;28;20280;-72
2023/11/08 21:57:45;;;;;;;1.23;1.00;;;;;9.80;99856.00;;;;10308794;28;20231;-71
2023/11/08 22:02:46;;;;;;;1.40;1.20;;;;;9.80;99843.00;;;;10315984;28;20243;-71
2023/11/08 22:07:47;;;;;;;2.17;1.00;;;;;9.80;99831.00;;;;10313042;28;20282;-72
2023/11/08 22:12:48;;;;;;;3.60;1.10;;;;;9.90;99824.00;;;;10306320;28;20230;-72
2023/11/08 22:17:49;;;;;;;3.57;1.30;;;;;9.90;99823.00;;;;10305996;28;20250;-72
2023/11/08 22:22:50;;;;;;;2.33;1.23;;;;;9.90;99819.00;;;;10301691;28;20243;-72
2023/11/08 22:27:52;;;;;;;1.97;1.13;;;;;9.90;99812.00;;;;10307861;28;21049;-72
2023/11/08 22:32:53;;;;;;;0.93;0.83;;;;;9.90;99804.00;;;;10308522;28;20220;-72
2023/11/08 22:37:55;;;;;;;2.80;1.07;;;;;9.90;99795.00;;;;10312285;28;20311;-72
2023/11/08 22:42:56;;;;;;;1.77;1.00;;;;;9.90;99802.00;;;;10315565;28;20278;-72
2023/11/08 22:47:57;;;;;;;2.00;1.10;;;;;9.90;99790.00;;;;10312061;28;20228;-72
2023/11/08 22:52:59;;;;;;;2.87;1.07;;;;;9.90;99772.00;;;;10317766;28;20739;-72
2023/11/08 22:58:00;;;;;;;2.83;1.40;;;;;9.90;99774.00;;;;10317442;28;20254;-72
2023/11/08 23:03:02;;;;;;;2.40;0.83;;;;;9.90;99763.00;;;;10309444;28;20254;-72
2023/11/08 23:08:08;;;;;;;1.10;0.80;;;;;9.90;99764.00;;;;10312726;28;20685;-73
2023/11/08 23:13:09;;;;;;;2.30;1.30;;;;;9.90;99766.00;;;;10329205;28;20370;-72
2023/11/08 23:18:14;;;;;;;2.03;1.00;;;;;9.90;99758.00;;;;10310519;28;20231;-73
2023/11/08 23:23:15;;;;;;;1.97;0.90;;;;;9.90;99744.00;;;;10312904;28;20300;-73
2023/11/08 23:28:16;;;;;;;1.07;0.97;;;;;9.90;99740.00;;;;10325572;28;20307;-72
2023/11/08 23:33:17;;;;;;;1.50;1.33;;;;;9.90;99735.00;;;;10306565;28;20224;-73
2023/11/08 23:38:20;;;;;;;1.83;1.10;;;;;10.00;99720.00;;;;10309264;28;20235;-72
2023/11/08 23:43:22;;;;;;;1.20;0.93;;;;;10.00;99721.00;;;;10311712;28;20231;-80
2023/11/08 23:48:24;;;;;;;1.27;0.90;;;;;10.00;99709.00;;;;10318944;28;20267;-78
2023/11/08 23:53:25;;;;;;;1.17;1.07;;;;;10.00;99708.00;;;;10327970;28;20231;-77
2023/11/08 23:58:26;;;;;;;1.67;1.10;;;;;10.00;99704.00;;;;10327287;28;20235;-76
